createdAt,value
2018-03-24T00:02:23.431Z,9.80
2018-03-24T00:04:50.879Z,10.77
2018-03-24T00:07:18.439Z,11.10
2018-03-24T00:09:45.883Z,10.50
2018-03-24T00:12:14.107Z,10.47
2018-03-24T00:14:41.581Z,9.43
2018-03-24T00:17:09.005Z,10.67
2018-03-24T00:19:36.554Z,9.93
2018-03-24T00:22:04.009Z,9.73
2018-03-24T00:24:31.484Z,9.90
2018-03-24T00:26:58.930Z,10.07
2018-03-24T00:29:26.382Z,9.93
2018-03-24T00:31:53.837Z,10.80
2018-03-24T00:34:21.311Z,10.60
2018-03-24T00:36:48.754Z,9.57
2018-03-24T00:39:16.223Z,10.07
2018-03-24T00:41:43.690Z,10.00
2018-03-24T00:44:11.142Z,10.13
2018-03-24T00:46:38.610Z,9.70
2018-03-24T00:49:06.046Z,10.13
2018-03-24T00:51:33.490Z,9.43
2018-03-24T00:54:00.927Z,9.83
2018-03-24T00:56:28.431Z,9.90
2018-03-24T00:58:55.869Z,9.40
2018-03-24T01:01:23.298Z,9.03
2018-03-24T01:03:50.745Z,10.27
2018-03-24T01:06:18.233Z,8.73
2018-03-24T01:08:45.666Z,9.73
2018-03-24T01:11:13.865Z,9.63
2018-03-24T01:13:41.344Z,9.43
2018-03-24T01:16:08.806Z,9.57
2018-03-24T01:18:36.250Z,9.57
2018-03-24T01:21:03.703Z,9.40
2018-03-24T01:23:31.151Z,9.30
2018-03-24T01:25:58.583Z,9.00
2018-03-24T01:28:26.066Z,9.53
2018-03-24T01:30:53.522Z,9.10
2018-03-24T01:33:20.986Z,9.07
2018-03-24T01:35:48.438Z,9.23
2018-03-24T01:38:15.895Z,9.53
2018-03-24T01:40:43.378Z,9.33
2018-03-24T01:43:10.809Z,9.33
2018-03-24T01:45:38.287Z,8.30
2018-03-24T01:48:05.723Z,8.77
2018-03-24T01:50:33.190Z,9.60
2018-03-24T01:53:00.644Z,9.40
2018-03-24T01:55:28.070Z,9.27
2018-03-24T01:57:55.518Z,8.87
2018-03-24T02:00:22.952Z,8.97
2018-03-24T02:02:50.398Z,9.63
2018-03-24T02:05:17.842Z,9.50
2018-03-24T02:07:45.314Z,10.20
2018-03-24T02:10:12.754Z,9.47
2018-03-24T02:12:40.218Z,9.57
2018-03-24T02:15:07.658Z,8.77
2018-03-24T02:17:35.110Z,10.03
2018-03-24T02:20:02.568Z,8.83
2018-03-24T02:22:30.023Z,9.00
2018-03-24T02:24:57.480Z,9.33
2018-03-24T02:27:24.937Z,9.00
2018-03-24T02:29:52.398Z,9.30
2018-03-24T02:32:19.880Z,9.40
2018-03-24T02:34:47.331Z,9.50
2018-03-24T02:37:14.780Z,9.97
2018-03-24T02:39:42.223Z,9.57
2018-03-24T02:42:09.683Z,9.53
2018-03-24T02:44:37.108Z,10.73
2018-03-24T02:47:04.566Z,9.97
2018-03-24T02:49:31.991Z,10.07
2018-03-24T02:52:00.215Z,9.87
2018-03-24T02:54:27.685Z,10.20
2018-03-24T02:56:55.137Z,9.77
2018-03-24T02:59:23.355Z,10.43
2018-03-24T03:01:51.594Z,10.20
2018-03-24T03:04:19.029Z,10.43
2018-03-24T03:06:46.485Z,9.87
2018-03-24T03:09:13.955Z,10.23
2018-03-24T03:11:41.383Z,9.97
2018-03-24T03:14:08.870Z,10.07
2018-03-24T03:16:36.342Z,9.80
2018-03-24T03:19:03.813Z,9.60
2018-03-24T03:24:31.457Z,10.23
2018-03-24T03:26:59.011Z,10.53
2018-03-24T03:29:26.633Z,10.40
2018-03-24T03:34:52.489Z,9.00
2018-03-24T03:37:20.747Z,10.53
2018-03-24T03:39:48.197Z,9.87
2018-03-24T03:42:15.664Z,11.10
2018-03-24T03:44:43.125Z,11.07
2018-03-24T03:47:10.586Z,10.70
2018-03-24T03:49:38.083Z,11.37
2018-03-24T03:52:05.538Z,10.97
2018-03-24T03:54:32.992Z,11.37
2018-03-24T03:57:00.490Z,10.93
2018-03-24T03:59:27.934Z,10.87
2018-03-24T04:01:55.414Z,11.67
2018-03-24T04:04:22.897Z,11.43
2018-03-24T04:06:50.367Z,11.17
2018-03-24T04:09:18.036Z,12.00
2018-03-24T04:11:45.529Z,11.50
2018-03-24T04:14:13.018Z,11.27
2018-03-24T04:16:41.266Z,11.13
2018-03-24T04:19:08.752Z,11.20
2018-03-24T04:21:36.241Z,11.60
2018-03-24T04:24:03.697Z,11.57
2018-03-24T04:26:31.193Z,12.07
2018-03-24T04:28:58.676Z,11.57
2018-03-24T04:31:26.979Z,11.77
2018-03-24T04:33:54.438Z,11.93
2018-03-24T04:36:21.910Z,12.13
2018-03-24T04:38:49.385Z,11.77
2018-03-24T04:41:17.022Z,12.63
2018-03-24T04:43:44.553Z,12.17
2018-03-24T04:46:12.091Z,12.60
2018-03-24T04:48:39.537Z,12.20
2018-03-24T04:51:07.023Z,12.13
2018-03-24T04:53:35.233Z,12.77
2018-03-24T04:56:02.722Z,13.13
2018-03-24T04:58:30.295Z,12.53
2018-03-24T05:00:57.769Z,12.20
2018-03-24T05:03:25.243Z,12.90
2018-03-24T05:05:52.738Z,13.13
2018-03-24T05:08:20.176Z,12.33
2018-03-24T05:10:47.673Z,12.00
2018-03-24T05:13:15.158Z,12.50
2018-03-24T05:15:43.389Z,12.47
2018-03-24T05:18:10.847Z,12.50
2018-03-24T05:20:38.366Z,13.57
2018-03-24T05:23:05.823Z,12.67
2018-03-24T05:25:33.297Z,13.20
2018-03-24T05:28:00.801Z,12.30
2018-03-24T05:30:28.257Z,13.27
2018-03-24T05:32:55.767Z,13.30
2018-03-24T05:35:23.233Z,13.17
2018-03-24T05:37:50.685Z,12.30
2018-03-24T05:40:18.167Z,13.60
2018-03-24T05:42:45.646Z,14.13
2018-03-24T05:45:13.142Z,12.90
2018-03-24T05:47:40.613Z,12.77
2018-03-24T05:50:08.097Z,13.50
2018-03-24T05:52:35.553Z,14.00
2018-03-24T05:55:03.775Z,13.87
2018-03-24T05:57:31.259Z,13.60
2018-03-24T05:59:58.706Z,13.77
2018-03-24T06:02:26.178Z,14.13
2018-03-24T06:04:53.652Z,14.53
2018-03-24T06:07:21.093Z,13.30
2018-03-24T06:09:48.573Z,13.60
2018-03-24T06:12:16.038Z,14.77
2018-03-24T06:14:43.514Z,14.40
2018-03-24T06:17:10.998Z,14.60
2018-03-24T06:19:39.215Z,14.20
2018-03-24T06:22:06.719Z,14.03
2018-03-24T06:24:34.166Z,13.47
2018-03-24T06:27:01.645Z,14.07
2018-03-24T06:29:29.852Z,14.07
2018-03-24T06:31:57.790Z,13.13
2018-03-24T06:34:25.258Z,13.40
2018-03-24T06:37:08.396Z,13.77
2018-03-24T06:39:35.885Z,14.07
2018-03-24T06:42:03.342Z,13.80
2018-03-24T06:44:30.830Z,13.97
2018-03-24T06:46:59.073Z,14.70
2018-03-24T06:49:26.540Z,14.53
2018-03-24T06:51:54.009Z,14.00
2018-03-24T06:54:22.231Z,13.50
2018-03-24T06:56:49.706Z,14.47
2018-03-24T06:59:17.201Z,14.00
2018-03-24T07:01:44.662Z,14.73
2018-03-24T07:04:12.151Z,14.97
2018-03-24T07:06:39.601Z,14.00
2018-03-24T07:09:07.078Z,14.93
2018-03-24T07:11:34.562Z,13.67
2018-03-24T07:14:02.027Z,15.57
2018-03-24T07:16:29.478Z,14.57
2018-03-24T07:18:56.962Z,15.50
2018-03-24T07:21:25.220Z,15.13
2018-03-24T07:23:52.670Z,14.80
2018-03-24T07:26:20.125Z,14.90
2018-03-24T07:28:47.626Z,15.80
2018-03-24T07:31:15.919Z,14.80
2018-03-24T07:33:43.341Z,14.27
2018-03-24T07:36:11.590Z,16.47
2018-03-24T07:38:39.038Z,14.97
2018-03-24T07:41:06.513Z,15.07
2018-03-24T07:43:33.976Z,15.00
2018-03-24T07:46:01.474Z,15.40
2018-03-24T07:48:28.929Z,15.87
2018-03-24T07:50:56.385Z,15.40
2018-03-24T07:53:23.864Z,15.53
2018-03-24T07:55:51.325Z,16.03
2018-03-24T07:58:18.810Z,16.17
2018-03-24T08:00:46.250Z,15.33
2018-03-24T08:03:13.721Z,16.50
2018-03-24T08:05:41.189Z,16.43
2018-03-24T08:08:08.674Z,16.80
2018-03-24T08:10:36.918Z,16.40
2018-03-24T08:13:04.378Z,15.97
2018-03-24T08:15:31.866Z,15.73
2018-03-24T08:18:00.082Z,15.90
2018-03-24T08:20:27.559Z,16.23
2018-03-24T08:22:55.051Z,16.10
2018-03-24T08:25:23.278Z,16.30
2018-03-24T08:27:50.728Z,16.97
2018-03-24T08:30:18.207Z,16.83
2018-03-24T08:32:45.667Z,16.43
2018-03-24T08:35:13.154Z,15.97
2018-03-24T08:37:41.365Z,15.67
2018-03-24T08:40:08.840Z,16.03
2018-03-24T08:42:36.341Z,16.80
2018-03-24T08:45:03.802Z,16.73
2018-03-24T08:47:31.286Z,17.10
2018-03-24T08:49:58.750Z,16.47
2018-03-24T08:52:26.239Z,16.70
2018-03-24T08:54:53.682Z,16.50
2018-03-24T08:57:21.167Z,18.00
2018-03-24T08:59:49.414Z,17.83
2018-03-24T09:02:16.862Z,17.90
2018-03-24T09:04:44.354Z,17.50
2018-03-24T09:07:11.832Z,18.53
2018-03-24T09:09:40.077Z,18.17
2018-03-24T09:12:07.557Z,19.00
2018-03-24T09:14:35.808Z,16.90
2018-03-24T09:17:03.262Z,18.00
2018-03-24T09:19:30.713Z,18.30
2018-03-24T09:21:58.190Z,18.93
2018-03-24T09:24:25.676Z,19.40
2018-03-24T09:26:53.366Z,19.60
2018-03-24T09:29:20.938Z,18.83
2018-03-24T09:31:48.428Z,19.40
2018-03-24T09:34:15.880Z,18.60
2018-03-24T09:36:43.331Z,18.07
2018-03-24T09:39:10.812Z,19.10
2018-03-24T09:41:38.287Z,19.80
2018-03-24T09:44:05.773Z,19.57
2018-03-24T09:46:33.252Z,19.27
2018-03-24T09:49:01.253Z,20.57
2018-03-24T09:51:29.566Z,19.63
2018-03-24T09:53:57.034Z,18.87
2018-03-24T09:56:24.494Z,18.87
2018-03-24T09:58:51.989Z,20.23
2018-03-24T10:01:19.456Z,20.50
2018-03-24T10:03:47.684Z,21.27
2018-03-24T10:06:15.154Z,20.20
2018-03-24T10:08:42.637Z,22.60
2018-03-24T10:11:10.888Z,19.67
2018-03-24T10:13:38.420Z,21.67
2018-03-24T10:16:05.896Z,21.80
2018-03-24T10:18:33.342Z,22.27
2018-03-24T10:24:09.038Z,22.97
2018-03-24T10:26:36.495Z,21.77
2018-03-24T10:29:03.946Z,22.70
2018-03-24T10:31:31.431Z,23.07
2018-03-24T10:34:01.744Z,21.73
2018-03-24T10:36:29.204Z,24.20
2018-03-24T10:38:56.677Z,23.40
2018-03-24T10:41:24.210Z,23.83
2018-03-24T10:43:51.670Z,23.90
2018-03-24T10:46:19.137Z,25.17
2018-03-24T10:48:46.594Z,25.00
2018-03-24T10:51:14.098Z,23.87
2018-03-24T10:53:41.565Z,25.50
2018-03-24T10:56:09.079Z,25.20
2018-03-24T10:58:36.572Z,23.33
2018-03-24T11:04:03.231Z,24.87
2018-03-24T11:06:30.716Z,23.17
2018-03-24T11:08:58.183Z,22.87
2018-03-24T11:11:25.629Z,25.93
2018-03-24T11:13:53.109Z,24.27
2018-03-24T11:16:20.565Z,22.63
2018-03-24T11:18:48.083Z,25.00
2018-03-24T11:21:15.534Z,24.87
2018-03-24T11:23:43.018Z,25.03
2018-03-24T11:26:10.498Z,23.37
2018-03-24T11:28:37.999Z,31.73
2018-03-24T11:31:05.493Z,26.23
2018-03-24T11:33:32.958Z,25.17
2018-03-24T11:36:00.429Z,24.83
2018-03-24T11:38:27.914Z,24.60
2018-03-24T11:40:56.188Z,24.77
2018-03-24T11:43:24.430Z,23.40
2018-03-24T11:45:51.895Z,24.27
2018-03-24T11:48:19.399Z,25.43
2018-03-24T11:50:46.869Z,26.93
2018-03-24T11:53:14.356Z,26.53
2018-03-24T11:55:41.838Z,25.67
2018-03-24T11:58:09.293Z,25.83
2018-03-24T12:00:36.769Z,23.47
2018-03-24T12:03:04.998Z,25.60
2018-03-24T12:05:32.488Z,26.03
2018-03-24T12:07:59.961Z,26.30
2018-03-24T12:10:28.201Z,27.33
2018-03-24T12:12:56.467Z,26.33
2018-03-24T12:15:23.922Z,26.70
2018-03-24T12:17:51.429Z,26.23
2018-03-24T12:20:18.908Z,26.67
2018-03-24T12:22:46.418Z,25.60
2018-03-24T12:25:14.705Z,26.47
2018-03-24T12:27:42.160Z,27.07
2018-03-24T12:30:09.661Z,28.20
2018-03-24T12:32:37.201Z,27.00
2018-03-24T12:35:04.611Z,28.70
2018-03-24T12:37:32.089Z,27.50
2018-03-24T12:39:59.565Z,27.40
2018-03-24T12:42:27.078Z,26.83
2018-03-24T12:44:54.538Z,26.20
2018-03-24T12:47:22.043Z,25.80
2018-03-24T12:49:50.291Z,25.33
2018-03-24T12:52:17.774Z,26.07
2018-03-24T12:54:45.989Z,27.17
2018-03-24T12:57:13.500Z,26.73
2018-03-24T12:59:41.750Z,26.63
2018-03-24T13:02:09.245Z,26.13
2018-03-24T13:04:37.480Z,24.00
2018-03-24T13:07:04.977Z,24.40
2018-03-24T13:09:32.474Z,23.87
2018-03-24T13:11:59.966Z,23.43
2018-03-24T13:14:27.427Z,25.30
2018-03-24T13:16:54.914Z,23.60
2018-03-24T13:19:23.172Z,23.80
2018-03-24T13:21:50.638Z,23.57
2018-03-24T13:24:18.150Z,24.03
2018-03-24T13:26:45.620Z,24.33
2018-03-24T13:29:13.156Z,24.13
2018-03-24T13:31:40.626Z,25.83
2018-03-24T13:34:08.164Z,23.57
2018-03-24T13:36:35.647Z,24.10
2018-03-24T13:39:03.869Z,23.47
2018-03-24T13:41:32.134Z,24.17
2018-03-24T13:43:59.846Z,23.17
2018-03-24T13:46:27.337Z,22.97
2018-03-24T13:48:54.806Z,22.90
2018-03-24T13:51:23.050Z,23.17
2018-03-24T13:53:50.612Z,22.30
2018-03-24T13:56:18.117Z,21.53
2018-03-24T13:58:45.558Z,21.93
2018-03-24T14:01:13.061Z,19.63
2018-03-24T14:03:40.561Z,18.87
2018-03-24T14:06:08.022Z,18.17
2018-03-24T14:08:35.507Z,18.30
2018-03-24T14:11:02.962Z,18.90
2018-03-24T14:13:30.466Z,18.63
2018-03-24T14:15:58.003Z,18.33
2018-03-24T14:18:26.206Z,18.47
2018-03-24T14:20:53.743Z,17.40
2018-03-24T14:23:21.201Z,17.47
2018-03-24T14:25:48.705Z,16.23
2018-03-24T14:28:16.206Z,17.10
2018-03-24T14:30:43.741Z,18.10
2018-03-24T14:33:11.976Z,17.40
2018-03-24T14:35:39.482Z,17.27
2018-03-24T14:38:06.971Z,18.10
2018-03-24T14:40:34.483Z,16.43
2018-03-24T14:43:02.740Z,16.30
2018-03-24T14:45:30.219Z,16.37
2018-03-24T14:47:58.483Z,17.27
2018-03-24T14:50:25.959Z,15.43
2018-03-24T14:52:54.205Z,16.50
2018-03-24T14:55:21.690Z,14.87
2018-03-24T14:57:49.952Z,16.10
2018-03-24T15:00:17.430Z,15.97
2018-03-24T15:02:45.673Z,13.70
2018-03-24T15:05:13.177Z,15.37
2018-03-24T15:07:40.687Z,15.70
2018-03-24T15:10:08.158Z,14.77
2018-03-24T15:12:35.636Z,14.17
2018-03-24T15:15:03.121Z,14.87
2018-03-24T15:17:30.605Z,14.00
2018-03-24T15:19:58.133Z,14.70
2018-03-24T15:22:25.614Z,14.30
2018-03-24T15:24:53.097Z,14.33
2018-03-24T15:27:20.585Z,14.13
2018-03-24T15:29:59.862Z,13.70
2018-03-24T15:32:48.174Z,13.27
2018-03-24T15:35:27.461Z,14.20
2018-03-24T15:37:54.941Z,14.10
2018-03-24T15:40:23.193Z,13.20
2018-03-24T15:42:50.715Z,13.97
2018-03-24T15:45:18.189Z,14.40
2018-03-24T15:47:45.668Z,15.17
2018-03-24T15:50:13.160Z,13.83
2018-03-24T15:52:41.394Z,14.93
2018-03-24T15:55:08.883Z,15.07
2018-03-24T15:57:36.334Z,14.37
2018-03-24T16:00:03.949Z,14.63
2018-03-24T16:02:31.410Z,15.10
2018-03-24T16:04:58.966Z,13.50
2018-03-24T16:07:26.473Z,14.83
2018-03-24T16:09:53.951Z,14.00
2018-03-24T16:12:21.442Z,14.77
2018-03-24T16:14:48.917Z,14.60
2018-03-24T16:17:16.395Z,14.67
2018-03-24T16:19:43.870Z,14.50
2018-03-24T16:22:12.153Z,14.50
2018-03-24T16:24:39.597Z,14.10
2018-03-24T16:27:07.116Z,13.20
2018-03-24T16:29:34.585Z,14.30
2018-03-24T16:32:02.078Z,13.97
2018-03-24T16:34:30.318Z,13.80
2018-03-24T16:36:58.596Z,13.90
2018-03-24T16:39:26.046Z,15.40
2018-03-24T16:41:53.647Z,13.73
2018-03-24T16:44:21.061Z,13.57
2018-03-24T16:46:48.546Z,13.33
2018-03-24T16:49:16.068Z,14.07
2018-03-24T16:51:43.568Z,14.40
2018-03-24T16:54:11.050Z,13.23
2018-03-24T16:56:39.281Z,14.27
2018-03-24T16:59:06.754Z,13.97
2018-03-24T17:01:34.235Z,13.63
2018-03-24T17:04:01.691Z,13.33
2018-03-24T17:06:29.957Z,13.53
2018-03-24T17:08:58.222Z,13.47
2018-03-24T17:11:27.191Z,13.40
2018-03-24T17:13:54.706Z,13.33
2018-03-24T17:16:22.365Z,12.63
2018-03-24T17:18:49.855Z,13.03
2018-03-24T17:21:17.348Z,13.50
2018-03-24T17:23:44.806Z,13.20
2018-03-24T17:26:12.306Z,13.13
2018-03-24T17:28:39.951Z,14.03
2018-03-24T17:31:07.457Z,13.67
2018-03-24T17:33:34.923Z,13.90
2018-03-24T17:36:02.648Z,15.37
2018-03-24T17:38:30.900Z,14.70
2018-03-24T17:40:58.413Z,15.00
2018-03-24T17:43:25.870Z,14.33
2018-03-24T17:45:53.359Z,14.70
2018-03-24T17:48:20.814Z,13.87
2018-03-24T17:50:48.365Z,15.33
2018-03-24T17:53:15.816Z,14.20
2018-03-24T17:55:44.128Z,13.00
2018-03-24T17:58:11.591Z,13.83
2018-03-24T18:00:39.057Z,13.57
2018-03-24T18:03:06.543Z,14.23
2018-03-24T18:05:34.042Z,12.67
2018-03-24T18:08:01.498Z,13.93
2018-03-24T18:10:28.976Z,13.37
2018-03-24T18:12:57.202Z,13.57
2018-03-24T18:15:24.690Z,12.73
2018-03-24T18:17:52.153Z,13.07
2018-03-24T18:20:19.637Z,14.20
2018-03-24T18:22:47.090Z,13.33
2018-03-24T18:25:15.310Z,13.43
2018-03-24T18:27:42.793Z,15.83
2018-03-24T18:30:10.249Z,14.17
2018-03-24T18:32:37.706Z,15.40
2018-03-24T18:35:05.223Z,16.50
2018-03-24T18:37:32.707Z,15.97
2018-03-24T18:40:00.205Z,15.80
2018-03-24T18:42:28.442Z,15.33
2018-03-24T18:44:55.945Z,15.13
2018-03-24T18:47:23.437Z,13.77
2018-03-24T18:49:50.918Z,14.63
2018-03-24T18:52:18.399Z,14.77
2018-03-24T18:54:45.876Z,14.97
2018-03-24T18:57:13.394Z,13.90
2018-03-24T18:59:40.867Z,12.83
2018-03-24T19:02:08.382Z,13.97
2018-03-24T19:04:35.849Z,13.27
2018-03-24T19:07:03.322Z,13.00
2018-03-24T19:09:30.813Z,12.77
2018-03-24T19:11:58.349Z,13.07
2018-03-24T19:14:25.822Z,13.37
2018-03-24T19:16:53.282Z,13.17
2018-03-24T19:22:11.850Z,14.30
2018-03-24T19:24:39.359Z,16.37
2018-03-24T19:27:06.828Z,16.00
2018-03-24T19:29:35.111Z,15.87
2018-03-24T19:32:02.593Z,15.40
2018-03-24T19:34:30.067Z,14.83
2018-03-24T19:36:58.326Z,13.33
2018-03-24T19:39:25.810Z,13.40
2018-03-24T19:41:54.068Z,13.20
2018-03-24T19:44:21.518Z,13.87
2018-03-24T19:46:49.002Z,12.77
2018-03-24T19:49:16.493Z,14.17
2018-03-24T19:51:43.949Z,13.07
2018-03-24T19:54:11.430Z,12.90
2018-03-24T19:56:38.886Z,13.40
2018-03-24T19:59:06.362Z,13.03
2018-03-24T20:01:33.846Z,13.20
2018-03-24T20:04:01.362Z,14.57
2018-03-24T20:06:28.840Z,13.03
2018-03-24T20:08:56.315Z,12.73
2018-03-24T20:11:24.547Z,14.23
2018-03-24T20:13:52.029Z,14.00
2018-03-24T20:16:19.482Z,13.67
2018-03-24T20:18:46.958Z,14.57
2018-03-24T20:21:14.420Z,12.83
2018-03-24T20:23:41.894Z,12.40
2018-03-24T20:26:09.401Z,12.93
2018-03-24T20:28:36.871Z,13.77
2018-03-24T20:31:04.358Z,13.00
2018-03-24T20:33:31.906Z,13.80
2018-03-24T20:36:00.174Z,14.07
2018-03-24T20:38:27.625Z,13.23
2018-03-24T20:40:55.101Z,13.73
2018-03-24T20:43:22.550Z,13.80
2018-03-24T20:45:50.018Z,12.93
2018-03-24T20:48:17.508Z,14.17
2018-03-24T20:50:44.954Z,13.67
2018-03-24T20:53:12.436Z,14.00
2018-03-24T20:55:39.886Z,13.53
2018-03-24T20:58:07.443Z,14.20
2018-03-24T21:00:34.935Z,15.03
2018-03-24T21:03:02.426Z,14.17
2018-03-24T21:05:29.878Z,14.13
2018-03-24T21:07:58.134Z,14.50
2018-03-24T21:10:25.595Z,14.73
2018-03-24T21:12:53.049Z,15.53
2018-03-24T21:15:20.586Z,16.03
2018-03-24T21:17:48.804Z,15.67
2018-03-24T21:20:17.070Z,16.47
2018-03-24T21:22:44.533Z,16.80
2018-03-24T21:25:11.982Z,16.93
2018-03-24T21:27:39.455Z,16.53
2018-03-24T21:30:07.712Z,15.47
2018-03-24T21:32:35.166Z,15.93
2018-03-24T21:35:02.640Z,14.70
2018-03-24T21:37:30.899Z,14.57
2018-03-24T21:39:58.391Z,14.70
2018-03-24T21:42:26.610Z,14.47
2018-03-24T21:44:54.066Z,15.40
2018-03-24T21:47:21.557Z,14.57
2018-03-24T21:49:49.039Z,15.00
2018-03-24T21:52:17.294Z,15.77
2018-03-24T21:54:44.743Z,14.73
2018-03-24T21:57:12.220Z,15.17
2018-03-24T21:59:40.474Z,14.77
2018-03-24T22:02:07.945Z,16.60
2018-03-24T22:04:35.411Z,15.73
2018-03-24T22:07:03.677Z,14.83
2018-03-24T22:09:31.134Z,13.90
2018-03-24T22:11:58.622Z,14.77
2018-03-24T22:14:26.065Z,13.87
2018-03-24T22:16:53.530Z,14.70
2018-03-24T22:19:21.777Z,14.50
2018-03-24T22:21:49.247Z,14.13
2018-03-24T22:24:17.502Z,14.40
2018-03-24T22:26:45.026Z,13.97
2018-03-24T22:29:12.478Z,14.30
2018-03-24T22:31:39.978Z,13.70
2018-03-24T22:34:07.434Z,14.97
2018-03-24T22:36:35.137Z,14.33
2018-03-24T22:39:02.598Z,13.63
2018-03-24T22:41:30.106Z,14.50
2018-03-24T22:43:57.554Z,15.00
2018-03-24T22:46:25.017Z,13.00
2018-03-24T22:48:52.507Z,14.57
2018-03-24T22:51:19.981Z,13.87
2018-03-24T22:53:47.456Z,14.40
2018-03-24T22:56:14.921Z,13.73
2018-03-24T22:58:42.402Z,14.20
2018-03-24T23:01:10.613Z,14.67
2018-03-24T23:03:38.091Z,14.07
2018-03-24T23:06:06.313Z,14.03
2018-03-24T23:08:33.806Z,14.13
2018-03-24T23:11:02.070Z,14.40
2018-03-24T23:13:29.525Z,14.90
2018-03-24T23:15:57.003Z,14.40
2018-03-24T23:18:24.445Z,14.53
2018-03-24T23:20:52.708Z,14.60
2018-03-24T23:23:20.184Z,13.97
2018-03-24T23:25:47.654Z,14.23
2018-03-24T23:28:15.137Z,14.00
2018-03-24T23:30:42.613Z,13.30
2018-03-24T23:33:10.072Z,14.60
2018-03-24T23:35:37.562Z,14.73
2018-03-24T23:38:05.031Z,14.87
2018-03-24T23:40:32.530Z,15.13
2018-03-24T23:43:00.014Z,15.40
2018-03-24T23:45:27.497Z,15.13
2018-03-24T23:47:54.946Z,15.23
2018-03-24T23:50:22.424Z,13.63
2018-03-24T23:52:50.686Z,14.93
2018-03-24T23:55:18.163Z,14.63
2018-03-24T23:57:45.656Z,14.83
